Causeway — 5BVB3 — position and weather

sailwx.info

Track history (hours):
 
Tides and Currents Weather Stations Pressure Air Temp Water Temp Dewpoint Dewpoint Depression Visibility Wind Speed Wind Dir Waves Ship Positions

Causeway

Last reported at 2018-Jun-18 09:00 UTC. Time now 2018-Jun-18 09:23 UTC.
Position N 51°59' E 004°03'.

Length 91 m; draft 6.2 m.

Type: Dredging. MMSI: 210523000.

Date/timePositionNaut miles runAvg speedWind from/ knotsBaromVisibWave heightAir tempDewpointWater temp
2018-Jun-18 09:00N 51°59' E 004°03'510.5
2018-Jun-18 08:31N 52°04' E 004°00'5 9.9
2018-Jun-18 08:01N 51°60' E 004°03'2 4.0
2018-Jun-18 07:30N 51°58' E 004°05'0 0.1
2018-Jun-18 07:01N 51°58' E 004°05'3 7.0
2018-Jun-18 06:30N 52°01' E 004°01'4 7.2
2018-Jun-18 06:01N 52°04' E 004°00'510.0
2018-Jun-18 05:31N 51°60' E 004°03'2 3.9
2018-Jun-18 05:01N 51°58' E 004°05'0 0.7
2018-Jun-18 04:30N 51°58' E 004°05'510.9
2018-Jun-18 04:01N 52°03' E 004°01'2 5.0
2018-Jun-18 03:31N 52°01' E 004°02'4 7.0
2018-Jun-18 03:01N 51°58' E 004°05'0 0.8
2018-Jun-18 02:31N 51°58' E 004°05'510.2
2018-Jun-18 02:01N 52°03' E 004°01'1 2.9
2018-Jun-18 01:30N 52°01' E 004°02'4 8.0
2018-Jun-18 01:01N 51°58' E 004°05'0 0.4
2018-Jun-18 00:31N 51°58' E 004°05'4 7.4
2018-Jun-18 00:00N 52°01' E 004°01'2 4.0
2018-Jun-17 23:30N 52°03' E 004°01'510.8
2018-Jun-17 23:01N 51°58' E 004°05'1 2.0
2018-Jun-17 22:30N 51°57' E 004°05'2 4.8
2018-Jun-17 22:00N 51°59' E 004°03'510.6
2018-Jun-17 21:31N 52°04' E 004°00'5 9.9
2018-Jun-17 21:00N 51°60' E 004°03'2 4.1
2018-Jun-17 20:30N 51°58' E 004°05'1 2.6
2018-Jun-17 20:00N 51°59' E 004°04'4 7.4
2018-Jun-17 19:31N 52°02' E 004°01'1 1.4
2018-Jun-17 19:01N 52°02' E 004°01'4 8.9
2018-Jun-17 18:30N 51°58' E 004°05'1 1.0
2018-Jun-17 18:01N 51°58' E 004°05'510.7
2018-Jun-17 17:31N 52°03' E 004°01'2 3.7
2018-Jun-17 17:01N 52°01' E 004°02'4 7.8
2018-Jun-17 16:30N 51°58' E 004°05'0 0.7
2018-Jun-17 16:01N 51°58' E 004°05'510.3
2018-Jun-17 15:31N 52°03' E 004°01'1 2.4
2018-Jun-17 15:00N 52°02' E 004°02'4 8.0
2018-Jun-17 14:31N 51°58' E 004°05'0 0.5
2018-Jun-17 14:00N 51°58' E 004°05'3 5.3
2018-Jun-17 13:31N 51°60' E 004°02'0 0.5
2018-Jun-17 13:01N 51°60' E 004°03'2 4.0
2018-Jun-17 12:31N 52°02' E 004°01'1 2.9
2018-Jun-17 12:01N 52°03' E 004°01'510.8
2018-Jun-17 11:30N 51°58' E 004°05'0 0.2
2018-Jun-17 11:00N 51°58' E 004°05'3 6.0
2018-Jun-17 10:30N 52°00' E 004°02'3 6.1
2018-Jun-17 10:01N 52°03' E 004°00'611.2
2018-Jun-17 09:31N 51°59' E 004°05'1 1.0
2018-Jun-17 09:00N 51°58' E 004°05'1 2.9
2018-Jun-17 08:31N 51°57' E 004°05'1 2.3
2018-Jun-17 08:01N 51°56' E 004°03'0 0.0
2018-Jun-17 07:30N 51°56' E 004°03'0 0.2
2018-Jun-17 07:01N 51°56' E 004°03'0 0.2
2018-Jun-17 06:31N 51°56' E 004°03'3 6.6
2018-Jun-17 06:00N 51°58' E 004°07'4 8.3
2018-Jun-17 05:30N 51°56' E 004°13'4 8.5
2018-Jun-17 05:01N 51°53' E 004°18'1 2.5
2018-Jun-17 04:30N 51°53' E 004°17'0 0.5
2018-Jun-17 04:01N 51°53' E 004°17'4 7.2
2018-Jun-17 03:31N 51°56' E 004°13'510.4
2018-Jun-17 03:01N 51°57' E 004°05'1 2.8
2018-Jun-17 02:31N 51°56' E 004°03'0 0.0
2018-Jun-17 02:00N 51°56' E 004°03'0 0.4
2018-Jun-17 01:31N 51°56' E 004°03'1 1.9
2018-Jun-17 01:00N 51°57' E 004°05'3 5.8
2018-Jun-17 00:31N 51°58' E 004°09'612.9
2018-Jun-17 00:00N 51°54' E 004°17'1 1.6
2018-Jun-16 23:30N 51°53' E 004°16'1 1.5
2018-Jun-16 23:01N 51°53' E 004°18'5 9.3
2018-Jun-16 22:30N 51°56' E 004°12'5 9.1
2018-Jun-16 22:01N 51°58' E 004°05'2 4.5
2018-Jun-16 21:31N 51°56' E 004°03'0 0.4
2018-Jun-16 21:01N 51°56' E 004°03'0 0.0
2018-Jun-16 20:31N 51°56' E 004°03'0 0.4
2018-Jun-16 20:00N 51°56' E 004°03'2 3.5
2018-Jun-16 19:31N 51°57' E 004°05'4 8.8
2018-Jun-16 19:00N 51°56' E 004°12'5 9.5
2018-Jun-16 18:31N 51°53' E 004°18'1 1.1
2018-Jun-16 18:01N 51°53' E 004°17'1 1.5
2018-Jun-16 17:31N 51°53' E 004°18'510.7
2018-Jun-16 17:00N 51°57' E 004°11'5 9.1
2018-Jun-16 16:30N 51°56' E 004°04'1 1.1
2018-Jun-16 16:00N 51°56' E 004°03'0 0.0
2018-Jun-16 15:30N 51°56' E 004°03'0 0.3
2018-Jun-16 15:01N 51°56' E 004°03'2 4.8
2018-Jun-16 14:31N 51°58' E 004°05'5 9.4
2018-Jun-16 14:00N 51°56' E 004°12'5 9.4
2018-Jun-16 13:30N 51°53' E 004°18'1 2.0
2018-Jun-16 13:00N 51°53' E 004°17'1 1.8
2018-Jun-16 12:30N 51°54' E 004°18'5 9.8
2018-Jun-16 12:00N 51°57' E 004°11'4 7.7
2018-Jun-16 11:30N 51°58' E 004°05'2 4.0
2018-Jun-16 11:00N 51°56' E 004°03'0 0.0
2018-Jun-16 10:31N 51°56' E 004°03'0 0.1
2018-Jun-16 10:00N 51°56' E 004°03'3 6.6
2018-Jun-16 09:31N 51°59' E 004°05'713.2
2018-Jun-16 09:01N 51°55' E 004°14'3 5.8
2018-Jun-16 08:30N 51°53' E 004°17'0 0.3
2018-Jun-16 08:00N 51°53' E 004°17'3 5.9
2018-Jun-16 07:30N 51°55' E 004°14'5 9.9
2018-Jun-16 07:00N 51°58' E 004°08'4 8.8
2018-Jun-16 06:30N 52°02' E 004°03'611.2
2018-Jun-16 06:00N 52°07' E 004°04'0 0.1
2018-Jun-16 05:30N 52°07' E 004°04'612.6
2018-Jun-16 05:00N 52°01' E 004°03'5 9.6
2018-Jun-16 04:30N 51°58' E 004°09'5 9.7
2018-Jun-16 04:00N 51°55' E 004°15'2 4.9
2018-Jun-16 03:31N 51°53' E 004°18'0 0.3
2018-Jun-16 03:00N 51°53' E 004°18'2 3.3
2018-Jun-16 02:30N 51°54' E 004°16'612.0
2018-Jun-16 02:00N 51°58' E 004°08'5 9.5
2018-Jun-16 01:30N 52°01' E 004°03'611.9
2018-Jun-16 01:00N 52°07' E 004°04'0 0.6
2018-Jun-16 00:30N 52°08' E 004°04'611.4
2018-Jun-16 00:00N 52°02' E 004°03'510.4
2018-Jun-15 23:30N 51°58' E 004°08'713.2
2018-Jun-15 23:00N 51°54' E 004°17'1 1.6
2018-Jun-15 22:31N 51°54' E 004°18'3 5.7
2018-Jun-15 22:00N 51°54' E 004°23'2 4.9
2018-Jun-15 21:30N 51°54' E 004°27'0 0.0
2018-Jun-15 21:00N 51°54' E 004°27'0 0.0
2018-Jun-15 20:30N 51°54' E 004°27'0 0.0
2018-Jun-15 20:00N 51°54' E 004°27'0 0.0
2018-Jun-15 19:30N 51°54' E 004°27'0 0.0
2018-Jun-15 19:00N 51°54' E 004°27'0 0.0
2018-Jun-15 18:30N 51°54' E 004°27'0 0.0
2018-Jun-15 18:00N 51°54' E 004°27'0 0.0
2018-Jun-15 17:30N 51°54' E 004°27'0 0.0
2018-Jun-15 17:00N 51°54' E 004°27'0 0.0
2018-Jun-15 16:30N 51°54' E 004°27'0 0.0
2018-Jun-15 16:00N 51°54' E 004°27'0 0.0
2018-Jun-15 15:30N 51°54' E 004°27'0 0.0
2018-Jun-15 15:00N 51°54' E 004°27'0 0.0
2018-Jun-15 14:30N 51°54' E 004°27'0 0.0
2018-Jun-15 14:00N 51°54' E 004°27'0 0.0
2018-Jun-15 13:30N 51°54' E 004°27'0 0.0
2018-Jun-15 13:00N 51°54' E 004°27'0 0.0
2018-Jun-15 12:30N 51°54' E 004°27'0 0.0
2018-Jun-15 12:00N 51°54' E 004°27'0 0.0
2018-Jun-15 11:30N 51°54' E 004°27'0 0.0
2018-Jun-15 11:00N 51°54' E 004°27'0 0.0
2018-Jun-15 10:30N 51°54' E 004°27'0 0.0
2018-Jun-15 10:00N 51°54' E 004°27'0 0.0
2018-Jun-15 09:30N 51°54' E 004°27'0 0.0
2018-Jun-15 09:00N 51°54' E 004°27'0 0.0
2018-Jun-15 08:30N 51°54' E 004°27'0 0.0
2018-Jun-15 08:00N 51°54' E 004°27'0 0.0
2018-Jun-15 07:30N 51°54' E 004°27'0 0.0
2018-Jun-15 07:00N 51°54' E 004°27'0 0.0
2018-Jun-15 06:30N 51°54' E 004°27'0 0.0
2018-Jun-15 06:00N 51°54' E 004°27'0 0.0
2018-Jun-15 05:30N 51°54' E 004°27'0 0.0
2018-Jun-15 05:00N 51°54' E 004°27'0 1.0
2018-Jun-15 04:30N 51°54' E 004°26'5 9.6
2018-Jun-15 04:00N 51°54' E 004°18'713.3
2018-Jun-15 03:30N 51°58' E 004°09'510.8
2018-Jun-15 03:00N 52°01' E 004°03'510.3
2018-Jun-15 02:30N 52°06' E 004°04'2 4.9
2018-Jun-15 02:01N 52°09' E 004°04'713.4
2018-Jun-15 01:30N 52°02' E 004°03'5 9.0
2018-Jun-15 01:00N 51°58' E 004°08'611.6
2018-Jun-15 00:31N 51°55' E 004°15'2 5.0
2018-Jun-15 00:00N 51°54' E 004°18'1 2.3
2018-Jun-14 23:30N 51°54' E 004°17'611.3
2018-Jun-14 23:00N 51°57' E 004°09'510.4
2018-Jun-14 22:30N 52°00' E 004°02'612.6
2018-Jun-14 22:01N 52°07' E 004°04'1 2.1
2018-Jun-14 21:30N 52°08' E 004°04'510.7
2018-Jun-14 21:00N 52°02' E 004°03'5 9.4
2018-Jun-14 20:30N 51°59' E 004°07'713.5
2018-Jun-14 20:00N 51°54' E 004°16'2 3.2
2018-Jun-14 19:31N 51°54' E 004°18'3 6.5
2018-Jun-14 19:00N 51°55' E 004°14'510.0
2018-Jun-14 18:31N 51°58' E 004°07'4 8.7
2018-Jun-14 18:01N 52°02' E 004°03'611.3
2018-Jun-14 17:31N 52°08' E 004°04'2 3.3
2018-Jun-14 17:01N 52°06' E 004°04'612.3
2018-Jun-14 16:30N 51°60' E 004°03'611.7
2018-Jun-14 16:01N 51°57' E 004°11'611.1
2018-Jun-14 15:30N 51°54' E 004°18'0 0.8
2018-Jun-14 15:00N 51°53' E 004°18'0 0.1
2018-Jun-14 14:31N 51°53' E 004°18'2 4.9
2018-Jun-14 14:00N 51°55' E 004°15'612.4
2018-Jun-14 13:31N 51°59' E 004°07'4 8.3
2018-Jun-14 13:00N 52°02' E 004°03'510.1
2018-Jun-14 12:31N 52°07' E 004°04'0 0.3
2018-Jun-14 12:01N 52°07' E 004°04'611.8
2018-Jun-14 11:30N 52°01' E 004°03'511.0
2018-Jun-14 11:01N 51°57' E 004°10'713.4
2018-Jun-14 10:31N 51°53' E 004°18'0 0.6
2018-Jun-14 10:01N 51°53' E 004°18'0 0.0
2018-Jun-14 09:31N 51°53' E 004°18'1 1.2
2018-Jun-14 09:01N 51°54' E 004°18'510.6
2018-Jun-14 08:31N 51°57' E 004°11'4 7.9
2018-Jun-14 08:00N 51°56' E 004°04'1 1.6
2018-Jun-14 07:30N 51°56' E 004°03'0 0.0
2018-Jun-14 07:00N 51°56' E 004°03'0 0.0
2018-Jun-14 06:30N 51°56' E 004°03'0 0.5
2018-Jun-14 06:00N 51°56' E 004°03'4 7.2
2018-Jun-14 05:30N 51°58' E 004°08'713.1
2018-Jun-14 05:00N 51°54' E 004°17'1 2.1
2018-Jun-14 04:30N 51°53' E 004°17'0 0.4
2018-Jun-14 04:00N 51°53' E 004°17'1 2.1
2018-Jun-14 03:30N 51°54' E 004°17'611.6
2018-Jun-14 03:00N 51°58' E 004°09'4 8.3
2018-Jun-14 02:30N 51°56' E 004°03'0 0.0
2018-Jun-14 02:00N 51°56' E 004°03'0 0.0
2018-Jun-14 01:30N 51°56' E 004°03'1 2.1
2018-Jun-14 01:00N 51°57' E 004°04'4 7.3
2018-Jun-14 00:30N 51°57' E 004°10'6 5.6
2018-Jun-13 23:30N 51°53' E 004°17'0 0.4
2018-Jun-13 23:00N 51°53' E 004°17'1 1.9
2018-Jun-13 22:30N 51°54' E 004°18'510.9
2018-Jun-13 22:00N 51°57' E 004°11'4 7.6
2018-Jun-13 21:31N 51°56' E 004°05'1 2.0
2018-Jun-13 21:00N 51°56' E 004°03'0 0.0
2018-Jun-13 20:30N 51°56' E 004°03'1 3.0
2018-Jun-13 20:00N 51°57' E 004°05'4 8.2
2018-Jun-13 19:30N 51°57' E 004°12'510.7
2018-Jun-13 19:00N 51°53' E 004°18'1 2.2
2018-Jun-13 18:31N 51°53' E 004°17'0 0.5
2018-Jun-13 18:00N 51°53' E 004°17'3 5.7
2018-Jun-13 17:30N 51°55' E 004°14'510.3
2018-Jun-13 17:01N 51°58' E 004°07'4 7.2
2018-Jun-13 16:30N 51°56' E 004°03'0 0.0
2018-Jun-13 16:01N 51°56' E 004°03'0 0.0
2018-Jun-13 15:30N 51°56' E 004°03'1 1.7
2018-Jun-13 15:00N 51°56' E 004°04'3 6.3
2018-Jun-13 14:30N 51°58' E 004°09'4 7.3
2018-Jun-13 14:00N 51°56' E 004°14'3 6.2
2018-Jun-13 13:31N 51°54' E 004°18'1 1.9
2018-Jun-13 13:01N 51°53' E 004°17'0 0.3
2018-Jun-13 12:30N 51°53' E 004°17'1 2.8
2018-Jun-13 12:00N 51°54' E 004°16'611.9
2018-Jun-13 11:30N 51°58' E 004°08'4 7.7
2018-Jun-13 11:01N 51°56' E 004°03'0 0.0
2018-Jun-13 10:30N 51°56' E 004°03'0 0.0
2018-Jun-13 10:00N 51°56' E 004°03'0 0.3
2018-Jun-13 09:30N 51°56' E 004°03'1 3.0
2018-Jun-13 09:00N 51°57' E 004°05'3 6.1
2018-Jun-13 08:31N 51°57' E 004°10'612.7
2018-Jun-13 08:00N 51°54' E 004°18'1 2.3
2018-Jun-13 07:30N 51°53' E 004°17'0 0.1
2018-Jun-13 07:00N 51°53' E 004°17'1 2.0
2018-Jun-13 06:30N 51°54' E 004°17'5 9.7
2018-Jun-13 06:01N 51°57' E 004°10'4 7.7
2018-Jun-13 05:31N 51°56' E 004°04'1 1.5
2018-Jun-13 05:00N 51°56' E 004°03'0 0.0
2018-Jun-13 04:31N 51°56' E 004°03'1 1.7
2018-Jun-13 04:01N 51°56' E 004°04'3 6.9
2018-Jun-13 03:30N 51°57' E 004°10'611.4
2018-Jun-13 03:01N 51°54' E 004°17'1 1.8
2018-Jun-13 02:31N 51°53' E 004°17'0 0.7
2018-Jun-13 02:01N 51°53' E 004°17'4 7.8
2018-Jun-13 01:31N 51°56' E 004°13'510.1
2018-Jun-13 01:00N 51°57' E 004°05'1 2.6
2018-Jun-13 00:30N 51°56' E 004°03'0 0.0
2018-Jun-13 00:00N 51°56' E 004°03'1 2.2
2018-Jun-12 23:30N 51°57' E 004°05'3 6.8
2018-Jun-12 23:00N 51°57' E 004°10'612.4
2018-Jun-12 22:30N 51°54' E 004°18'1 2.2
2018-Jun-12 22:00N 51°53' E 004°17'0 0.0
2018-Jun-12 21:30N 51°53' E 004°17'0 0.9
2018-Jun-12 21:00N 51°53' E 004°17'4 8.1
2018-Jun-12 20:30N 51°56' E 004°13'510.0
2018-Jun-12 20:00N 51°58' E 004°05'3 5.2
2018-Jun-12 19:30N 51°56' E 004°03'0 0.0
2018-Jun-12 19:00N 51°56' E 004°03'1 2.2
2018-Jun-12 18:30N 51°57' E 004°05'4 7.9
2018-Jun-12 18:00N 51°57' E 004°11'611.1
2018-Jun-12 17:30N 51°53' E 004°18'1 1.5
2018-Jun-12 17:00N 51°53' E 004°17'0 0.0
2018-Jun-12 16:30N 51°53' E 004°17'0 0.6
2018-Jun-12 16:00N 51°53' E 004°17'4 7.3
2018-Jun-12 15:30N 51°56' E 004°13'510.6
2018-Jun-12 15:00N 51°58' E 004°06'3 5.3
2018-Jun-12 14:30N 51°56' E 004°03'0 0.0
2018-Jun-12 14:00N 51°56' E 004°03'0 0.4
2018-Jun-12 13:30N 51°56' E 004°03'4 7.3
2018-Jun-12 13:00N 51°58' E 004°08'4 8.7
2018-Jun-12 12:30N 51°55' E 004°14'3 6.5
2018-Jun-12 12:00N 51°53' E 004°18'1 1.6
2018-Jun-12 11:30N 51°53' E 004°17'0 0.0
2018-Jun-12 11:00N 51°53' E 004°17'1 2.0
2018-Jun-12 10:30N 51°54' E 004°18'510.4
2018-Jun-12 10:00N 51°57' E 004°11'4 7.7
2018-Jun-12 09:30N 51°57' E 004°05'2 3.2
2018-Jun-12 09:00N 51°56' E 004°03'0 0.0
2018-Jun-12 08:30N 51°56' E 004°03'1 1.0
2018-Jun-12 08:00N 51°56' E 004°04'3 6.8
2018-Jun-12 07:30N 51°58' E 004°09'612.9
2018-Jun-12 07:00N 51°54' E 004°17'1 1.9
2018-Jun-12 06:30N 51°53' E 004°17'0 0.1
2018-Jun-12 06:00N 51°53' E 004°17'2 3.1
2018-Jun-12 05:30N 51°54' E 004°16'5 9.3
2018-Jun-12 05:00N 51°57' E 004°10'3 6.3
2018-Jun-12 04:30N 51°57' E 004°05'1 2.4
2018-Jun-12 04:00N 51°56' E 004°03'0 0.0
2018-Jun-12 03:30N 51°56' E 004°03'1 2.9
2018-Jun-12 03:00N 51°57' E 004°05'4 7.1
2018-Jun-12 02:30N 51°57' E 004°11'611.1
2018-Jun-12 02:00N 51°54' E 004°18'1 2.1
2018-Jun-12 01:30N 51°53' E 004°17'0 0.0
2018-Jun-12 01:00N 51°53' E 004°17'1 1.8
2018-Jun-12 00:30N 51°54' E 004°18'612.9
2018-Jun-12 00:00N 51°58' E 004°09'4 8.0
2018-Jun-11 23:30N 51°56' E 004°03'0 0.2
2018-Jun-11 23:00N 51°56' E 004°03'0 0.0
2018-Jun-11 22:30N 51°56' E 004°03'2 3.3
2018-Jun-11 22:00N 51°57' E 004°05'4 8.0
2018-Jun-11 21:30N 51°57' E 004°11'510.6
2018-Jun-11 21:00N 51°53' E 004°18'1 1.6
2018-Jun-11 20:30N 51°53' E 004°17'0 0.2
2018-Jun-11 20:00N 51°53' E 004°17'2 4.3
2018-Jun-11 19:30N 51°55' E 004°15'510.9
2018-Jun-11 19:00N 51°58' E 004°08'4 7.4
2018-Jun-11 18:30N 51°56' E 004°03'0 0.0
2018-Jun-11 18:00N 51°56' E 004°03'0 0.0
2018-Jun-11 17:30N 51°56' E 004°03'4 7.7
2018-Jun-11 17:01N 51°58' E 004°08'713.5
2018-Jun-11 16:30N 51°54' E 004°17'1 1.8
2018-Jun-11 16:00N 51°53' E 004°17'0 0.2
2018-Jun-11 15:30N 51°53' E 004°17'1 1.6
2018-Jun-11 15:00N 51°54' E 004°17'611.6
2018-Jun-11 14:30N 51°57' E 004°10'4 8.5
2018-Jun-11 14:01N 51°56' E 004°03'0 0.4
2018-Jun-11 13:30N 51°56' E 004°03'0 0.0
2018-Jun-11 13:00N 51°56' E 004°03'3 5.8
2018-Jun-11 12:30N 51°58' E 004°06'5 9.2
2018-Jun-11 12:01N 51°56' E 004°13'4 9.0
2018-Jun-11 11:31N 51°54' E 004°18'1 2.4
2018-Jun-11 11:00N 51°53' E 004°17'1 1.8
2018-Jun-11 10:30N 51°54' E 004°17'612.6
2018-Jun-11 10:00N 51°58' E 004°09'4 7.9
2018-Jun-11 09:30N 51°56' E 004°03'0 0.4
2018-Jun-11 09:00N 51°56' E 004°03'0 0.0
2018-Jun-11 08:30N 51°56' E 004°03'1 2.0
2018-Jun-11 08:00N 51°57' E 004°04'3 5.3
2018-Jun-11 07:30N 51°58' E 004°07'511.0
2018-Jun-11 07:00N 51°55' E 004°14'3 5.3
2018-Jun-11 06:30N 51°53' E 004°17'0 0.6
2018-Jun-11 06:01N 51°53' E 004°17'0 0.1
2018-Jun-11 05:30N 51°53' E 004°17'2 3.5
2018-Jun-11 05:00N 51°55' E 004°15'5 9.7
2018-Jun-11 04:30N 51°58' E 004°09'4 8.1
2018-Jun-11 04:01N 51°56' E 004°03'0 0.2
2018-Jun-11 03:30N 51°56' E 004°03'0 0.0
2018-Jun-11 03:00N 51°56' E 004°03'0 0.0
2018-Jun-11 02:31N 51°56' E 004°03'2 3.4
2018-Jun-11 02:01N 51°57' E 004°05'3 6.3
2018-Jun-11 01:30N 51°57' E 004°10'510.7
2018-Jun-11 01:00N 51°54' E 004°17'1 1.7
2018-Jun-11 00:30N 51°54' E 004°19'0 1.0
2018-Jun-11 00:01N 51°54' E 004°18'714.0
2018-Jun-10 23:31N 51°58' E 004°09'4 7.8
2018-Jun-10 23:00N 51°56' E 004°03'0 0.0
2018-Jun-10 22:30N 51°56' E 004°03'0 0.0
2018-Jun-10 22:01N 51°56' E 004°03'0 0.0
2018-Jun-10 21:30N 51°56' E 004°03'7 6.7
2018-Jun-10 20:30N 51°55' E 004°14'3 6.7
2018-Jun-10 20:00N 51°54' E 004°19'1 1.5
2018-Jun-10 19:30N 51°54' E 004°17'510.8
2018-Jun-10 19:00N 51°57' E 004°10'4 7.7
2018-Jun-10 18:30N 51°56' E 004°04'1 1.5
2018-Jun-10 18:00N 51°56' E 004°03'0 0.0
2018-Jun-10 17:30N 51°56' E 004°03'0 0.0
2018-Jun-10 17:01N 51°56' E 004°03'1 1.8
2018-Jun-10 16:30N 51°56' E 004°04'4 7.4
2018-Jun-10 16:00N 51°57' E 004°10'612.0
2018-Jun-10 15:30N 51°54' E 004°18'0 0.6
2018-Jun-10 15:00N 51°54' E 004°19'7 6.9
2018-Jun-10 14:00N 51°57' E 004°09'4 8.1
2018-Jun-10 13:30N 51°56' E 004°03'0 0.4
2018-Jun-10 13:00N 51°56' E 004°03'0 0.0
2018-Jun-10 12:30N 51°56' E 004°03'0 0.0
2018-Jun-10 12:01N 51°56' E 004°03'3 6.1
2018-Jun-10 11:30N 51°58' E 004°06'4 8.1
2018-Jun-10 11:00N 51°56' E 004°12'4 8.6
2018-Jun-10 10:31N 51°54' E 004°18'1 1.2
2018-Jun-10 10:01N 51°54' E 004°19'0 0.6
2018-Jun-10 09:30N 51°54' E 004°18'611.6
2018-Jun-10 09:00N 51°57' E 004°10'4 7.3
2018-Jun-10 08:31N 51°56' E 004°05'1 2.1
2018-Jun-10 08:00N 51°56' E 004°03'0 0.0
2018-Jun-10 07:30N 51°56' E 004°03'0 0.0
2018-Jun-10 07:00N 51°56' E 004°03'0 0.0
2018-Jun-10 06:30N 51°56' E 004°03'3 6.7
2018-Jun-10 06:01N 51°59' E 004°06'612.0
2018-Jun-10 05:30N 51°55' E 004°14'4 7.1
2018-Jun-10 05:00N 51°54' E 004°19'0 0.1
2018-Jun-10 04:31N 51°54' E 004°19'3 5.6
2018-Jun-10 04:01N 51°55' E 004°15'5 9.5
2018-Jun-10 03:30N 51°58' E 004°09'4 7.9
2018-Jun-10 03:00N 51°56' E 004°03'0 0.1
2018-Jun-10 02:30N 51°56' E 004°03'0 0.0
2018-Jun-10 02:00N 51°56' E 004°03'0 0.0
2018-Jun-10 01:30N 51°56' E 004°03'2 4.2
2018-Jun-10 01:00N 51°58' E 004°05'4 8.2
2018-Jun-10 00:30N 51°57' E 004°12'5 9.5
2018-Jun-10 00:01N 51°54' E 004°18'0 0.7
2018-Jun-09 23:30N 51°54' E 004°18'0 0.9
2018-Jun-09 23:00N 51°54' E 004°18'714.0
2018-Jun-09 22:30N 51°58' E 004°09'4 7.8
2018-Jun-09 22:00N 51°56' E 004°03'0 0.1
2018-Jun-09 21:30N 51°56' E 004°03'0 0.0
2018-Jun-09 21:00N 51°56' E 004°03'0 0.0
2018-Jun-09 20:30N 51°56' E 004°03'2 3.5
2018-Jun-09 20:00N 51°57' E 004°05'3 7.0
2018-Jun-09 19:30N 51°57' E 004°11'611.4
2018-Jun-09 19:00N 51°54' E 004°18'0 0.6
2018-Jun-09 18:30N 51°54' E 004°19'0 0.2
2018-Jun-09 18:00N 51°54' E 004°19'3 6.9
2018-Jun-09 17:30N 51°55' E 004°14'510.3
2018-Jun-09 17:01N 51°58' E 004°07'3 7.0
2018-Jun-09 16:30N 51°56' E 004°03'0 0.0
2018-Jun-09 16:00N 51°56' E 004°03'0 0.0
2018-Jun-09 15:30N 51°56' E 004°03'4 3.8
2018-Jun-09 14:30N 51°58' E 004°08'612.4
2018-Jun-09 14:00N 51°54' E 004°16'2 3.2
2018-Jun-09 13:30N 51°54' E 004°18'0 0.2
2018-Jun-09 13:01N 51°54' E 004°19'5 9.4
2018-Jun-09 12:30N 51°56' E 004°12'4 9.0
2018-Jun-09 12:00N 51°57' E 004°05'2 3.2
2018-Jun-09 11:30N 51°56' E 004°03'0 0.0
2018-Jun-09 11:00N 51°56' E 004°03'0 0.0
2018-Jun-09 10:30N 51°56' E 004°03'2 4.7
2018-Jun-09 10:00N 51°58' E 004°05'4 7.6
2018-Jun-09 09:30N 51°57' E 004°11'5 9.5
2018-Jun-09 09:00N 51°54' E 004°17'1 1.8
2018-Jun-09 08:30N 51°54' E 004°19'3 5.2
2018-Jun-09 08:00N 51°55' E 004°15'611.6
2018-Jun-09 07:30N 51°58' E 004°08'4 7.3
2018-Jun-09 07:00N 51°56' E 004°03'0 0.0
2018-Jun-09 06:30N 51°56' E 004°03'0 0.0
2018-Jun-09 06:00N 51°56' E 004°03'0 0.0
2018-Jun-09 05:30N 51°56' E 004°03'3 5.1
2018-Jun-09 05:00N 51°58' E 004°05'4 8.6
2018-Jun-09 04:30N 51°57' E 004°12'510.1
2018-Jun-09 04:00N 51°54' E 004°18'0 0.5
2018-Jun-09 03:30N 51°54' E 004°19'1 2.8
2018-Jun-09 03:00N 51°54' E 004°17'5 9.1
2018-Jun-09 02:30N 51°57' E 004°11'3 6.9
2018-Jun-09 02:00N 51°57' E 004°05'2 3.5
2018-Jun-09 01:30N 51°56' E 004°03'0 0.0
2018-Jun-09 01:00N 51°56' E 004°03'0 0.0
2018-Jun-09 00:30N 51°56' E 004°03'1 2.7
2018-Jun-09 00:00N 51°57' E 004°05'3 6.6
2018-Jun-08 23:30N 51°57' E 004°10'510.1
2018-Jun-08 23:00N 51°54' E 004°17'1 2.9
2018-Jun-08 22:30N 51°54' E 004°19'0 0.5
2018-Jun-08 22:00N 51°54' E 004°18'612.5
2018-Jun-08 21:30N 51°57' E 004°10'4 8.5
2018-Jun-08 21:00N 51°56' E 004°03'0 0.4
2018-Jun-08 20:30N 51°56' E 004°03'0 0.0
2018-Jun-08 20:00N 51°56' E 004°03'0 0.1
2018-Jun-08 19:30N 51°56' E 004°03'3 5.6
2018-Jun-08 19:01N 51°58' E 004°06'510.7
2018-Jun-08 18:30N 51°56' E 004°13'4 7.6
2018-Jun-08 18:00N 51°54' E 004°19'0 0.2
2018-Jun-08 17:30N 51°54' E 004°19'5 9.0
2018-Jun-08 17:00N 51°56' E 004°12'5 9.3
2018-Jun-08 16:30N 51°58' E 004°06'3 5.7
2018-Jun-08 16:00N 51°56' E 004°03'0 0.0
2018-Jun-08 15:30N 51°56' E 004°03'0 0.0
2018-Jun-08 15:00N 51°56' E 004°03'2 4.3
2018-Jun-08 14:30N 51°58' E 004°05'5 9.7
2018-Jun-08 14:00N 51°56' E 004°13'4 8.7
2018-Jun-08 13:30N 51°54' E 004°19'0 0.1
2018-Jun-08 13:00N 51°54' E 004°19'4 8.9
2018-Jun-08 12:30N 51°56' E 004°13'5 9.5
2018-Jun-08 12:00N 51°58' E 004°05'2 4.5
2018-Jun-08 11:30N 51°56' E 004°03'0 0.0
2018-Jun-08 11:00N 51°56' E 004°03'0 0.0
2018-Jun-08 10:30N 51°56' E 004°03'3 5.8
2018-Jun-08 10:00N 51°58' E 004°06'5 9.9
2018-Jun-08 09:30N 51°56' E 004°13'  
Track history (hours):
 
Tides and Currents Weather Stations Pressure Air Temp Water Temp Dewpoint Dewpoint Depression Visibility Wind Speed Wind Dir Waves Ship Positions

Causeway

Last reported at 2018-Jun-18 09:00 UTC. Time now 2018-Jun-18 09:23 UTC.
Position N 51°59' E 004°03'.

Length 91 m; draft 6.2 m.

Type: Dredging. MMSI: 210523000.

Date/timePositionNaut miles runAvg speedWind from/ knotsBaromVisibWave heightAir tempDewpointWater temp
2018-Jun-18 09:00N 51°59' E 004°03'510.5
2018-Jun-18 08:31N 52°04' E 004°00'5 9.9
2018-Jun-18 08:01N 51°60' E 004°03'2 4.0
2018-Jun-18 07:30N 51°58' E 004°05'0 0.1
2018-Jun-18 07:01N 51°58' E 004°05'3 7.0
2018-Jun-18 06:30N 52°01' E 004°01'4 7.2
2018-Jun-18 06:01N 52°04' E 004°00'510.0
2018-Jun-18 05:31N 51°60' E 004°03'2 3.9
2018-Jun-18 05:01N 51°58' E 004°05'0 0.7
2018-Jun-18 04:30N 51°58' E 004°05'510.9
2018-Jun-18 04:01N 52°03' E 004°01'2 5.0
2018-Jun-18 03:31N 52°01' E 004°02'4 7.0
2018-Jun-18 03:01N 51°58' E 004°05'0 0.8
2018-Jun-18 02:31N 51°58' E 004°05'510.2
2018-Jun-18 02:01N 52°03' E 004°01'1 2.9
2018-Jun-18 01:30N 52°01' E 004°02'4 8.0
2018-Jun-18 01:01N 51°58' E 004°05'0 0.4
2018-Jun-18 00:31N 51°58' E 004°05'4 7.4
2018-Jun-18 00:00N 52°01' E 004°01'2 4.0
2018-Jun-17 23:30N 52°03' E 004°01'510.8
2018-Jun-17 23:01N 51°58' E 004°05'1 2.0
2018-Jun-17 22:30N 51°57' E 004°05'2 4.8
2018-Jun-17 22:00N 51°59' E 004°03'510.6
2018-Jun-17 21:31N 52°04' E 004°00'5 9.9
2018-Jun-17 21:00N 51°60' E 004°03'2 4.1
2018-Jun-17 20:30N 51°58' E 004°05'1 2.6
2018-Jun-17 20:00N 51°59' E 004°04'4 7.4
2018-Jun-17 19:31N 52°02' E 004°01'1 1.4
2018-Jun-17 19:01N 52°02' E 004°01'4 8.9
2018-Jun-17 18:30N 51°58' E 004°05'1 1.0
2018-Jun-17 18:01N 51°58' E 004°05'510.7
2018-Jun-17 17:31N 52°03' E 004°01'2 3.7
2018-Jun-17 17:01N 52°01' E 004°02'4 7.8
2018-Jun-17 16:30N 51°58' E 004°05'0 0.7
2018-Jun-17 16:01N 51°58' E 004°05'510.3
2018-Jun-17 15:31N 52°03' E 004°01'1 2.4
2018-Jun-17 15:00N 52°02' E 004°02'4 8.0
2018-Jun-17 14:31N 51°58' E 004°05'0 0.5
2018-Jun-17 14:00N 51°58' E 004°05'3 5.3
2018-Jun-17 13:31N 51°60' E 004°02'0 0.5
2018-Jun-17 13:01N 51°60' E 004°03'2 4.0
2018-Jun-17 12:31N 52°02' E 004°01'1 2.9
2018-Jun-17 12:01N 52°03' E 004°01'510.8
2018-Jun-17 11:30N 51°58' E 004°05'0 0.2
2018-Jun-17 11:00N 51°58' E 004°05'3 6.0
2018-Jun-17 10:30N 52°00' E 004°02'3 6.1
2018-Jun-17 10:01N 52°03' E 004°00'611.2
2018-Jun-17 09:31N 51°59' E 004°05'1 1.0
2018-Jun-17 09:00N 51°58' E 004°05'1 2.9
2018-Jun-17 08:31N 51°57' E 004°05'1 2.3
2018-Jun-17 08:01N 51°56' E 004°03'0 0.0
2018-Jun-17 07:30N 51°56' E 004°03'0 0.2
2018-Jun-17 07:01N 51°56' E 004°03'0 0.2
2018-Jun-17 06:31N 51°56' E 004°03'3 6.6
2018-Jun-17 06:00N 51°58' E 004°07'4 8.3
2018-Jun-17 05:30N 51°56' E 004°13'4 8.5
2018-Jun-17 05:01N 51°53' E 004°18'1 2.5
2018-Jun-17 04:30N 51°53' E 004°17'0 0.5
2018-Jun-17 04:01N 51°53' E 004°17'4 7.2
2018-Jun-17 03:31N 51°56' E 004°13'510.4
2018-Jun-17 03:01N 51°57' E 004°05'1 2.8
2018-Jun-17 02:31N 51°56' E 004°03'0 0.0
2018-Jun-17 02:00N 51°56' E 004°03'0 0.4
2018-Jun-17 01:31N 51°56' E 004°03'1 1.9
2018-Jun-17 01:00N 51°57' E 004°05'3 5.8
2018-Jun-17 00:31N 51°58' E 004°09'612.9
2018-Jun-17 00:00N 51°54' E 004°17'1 1.6
2018-Jun-16 23:30N 51°53' E 004°16'1 1.5
2018-Jun-16 23:01N 51°53' E 004°18'5 9.3
2018-Jun-16 22:30N 51°56' E 004°12'5 9.1
2018-Jun-16 22:01N 51°58' E 004°05'2 4.5
2018-Jun-16 21:31N 51°56' E 004°03'0 0.4
2018-Jun-16 21:01N 51°56' E 004°03'0 0.0
2018-Jun-16 20:31N 51°56' E 004°03'0 0.4
2018-Jun-16 20:00N 51°56' E 004°03'2 3.5
2018-Jun-16 19:31N 51°57' E 004°05'4 8.8
2018-Jun-16 19:00N 51°56' E 004°12'5 9.5
2018-Jun-16 18:31N 51°53' E 004°18'1 1.1
2018-Jun-16 18:01N 51°53' E 004°17'1 1.5
2018-Jun-16 17:31N 51°53' E 004°18'510.7
2018-Jun-16 17:00N 51°57' E 004°11'5 9.1
2018-Jun-16 16:30N 51°56' E 004°04'1 1.1
2018-Jun-16 16:00N 51°56' E 004°03'0 0.0
2018-Jun-16 15:30N 51°56' E 004°03'0 0.3
2018-Jun-16 15:01N 51°56' E 004°03'2 4.8
2018-Jun-16 14:31N 51°58' E 004°05'5 9.4
2018-Jun-16 14:00N 51°56' E 004°12'5 9.4
2018-Jun-16 13:30N 51°53' E 004°18'1 2.0
2018-Jun-16 13:00N 51°53' E 004°17'1 1.8
2018-Jun-16 12:30N 51°54' E 004°18'5 9.8
2018-Jun-16 12:00N 51°57' E 004°11'4 7.7
2018-Jun-16 11:30N 51°58' E 004°05'2 4.0
2018-Jun-16 11:00N 51°56' E 004°03'0 0.0
2018-Jun-16 10:31N 51°56' E 004°03'0 0.1
2018-Jun-16 10:00N 51°56' E 004°03'3 6.6
2018-Jun-16 09:31N 51°59' E 004°05'713.2
2018-Jun-16 09:01N 51°55' E 004°14'3 5.8
2018-Jun-16 08:30N 51°53' E 004°17'0 0.3
2018-Jun-16 08:00N 51°53' E 004°17'3 5.9
2018-Jun-16 07:30N 51°55' E 004°14'5 9.9
2018-Jun-16 07:00N 51°58' E 004°08'4 8.8
2018-Jun-16 06:30N 52°02' E 004°03'611.2
2018-Jun-16 06:00N 52°07' E 004°04'0 0.1
2018-Jun-16 05:30N 52°07' E 004°04'612.6
2018-Jun-16 05:00N 52°01' E 004°03'5 9.6
2018-Jun-16 04:30N 51°58' E 004°09'5 9.7
2018-Jun-16 04:00N 51°55' E 004°15'2 4.9
2018-Jun-16 03:31N 51°53' E 004°18'0 0.3
2018-Jun-16 03:00N 51°53' E 004°18'2 3.3
2018-Jun-16 02:30N 51°54' E 004°16'612.0
2018-Jun-16 02:00N 51°58' E 004°08'5 9.5
2018-Jun-16 01:30N 52°01' E 004°03'611.9
2018-Jun-16 01:00N 52°07' E 004°04'0 0.6
2018-Jun-16 00:30N 52°08' E 004°04'611.4
2018-Jun-16 00:00N 52°02' E 004°03'510.4
2018-Jun-15 23:30N 51°58' E 004°08'713.2
2018-Jun-15 23:00N 51°54' E 004°17'1 1.6
2018-Jun-15 22:31N 51°54' E 004°18'3 5.7
2018-Jun-15 22:00N 51°54' E 004°23'2 4.9
2018-Jun-15 21:30N 51°54' E 004°27'0 0.0
2018-Jun-15 21:00N 51°54' E 004°27'0 0.0
2018-Jun-15 20:30N 51°54' E 004°27'0 0.0
2018-Jun-15 20:00N 51°54' E 004°27'0 0.0
2018-Jun-15 19:30N 51°54' E 004°27'0 0.0
2018-Jun-15 19:00N 51°54' E 004°27'0 0.0
2018-Jun-15 18:30N 51°54' E 004°27'0 0.0
2018-Jun-15 18:00N 51°54' E 004°27'0 0.0
2018-Jun-15 17:30N 51°54' E 004°27'0 0.0
2018-Jun-15 17:00N 51°54' E 004°27'0 0.0
2018-Jun-15 16:30N 51°54' E 004°27'0 0.0
2018-Jun-15 16:00N 51°54' E 004°27'0 0.0
2018-Jun-15 15:30N 51°54' E 004°27'0 0.0
2018-Jun-15 15:00N 51°54' E 004°27'0 0.0
2018-Jun-15 14:30N 51°54' E 004°27'0 0.0
2018-Jun-15 14:00N 51°54' E 004°27'0 0.0
2018-Jun-15 13:30N 51°54' E 004°27'0 0.0
2018-Jun-15 13:00N 51°54' E 004°27'0 0.0
2018-Jun-15 12:30N 51°54' E 004°27'0 0.0
2018-Jun-15 12:00N 51°54' E 004°27'0 0.0
2018-Jun-15 11:30N 51°54' E 004°27'0 0.0
2018-Jun-15 11:00N 51°54' E 004°27'0 0.0
2018-Jun-15 10:30N 51°54' E 004°27'0 0.0
2018-Jun-15 10:00N 51°54' E 004°27'0 0.0
2018-Jun-15 09:30N 51°54' E 004°27'0 0.0
2018-Jun-15 09:00N 51°54' E 004°27'0 0.0
2018-Jun-15 08:30N 51°54' E 004°27'0 0.0
2018-Jun-15 08:00N 51°54' E 004°27'0 0.0
2018-Jun-15 07:30N 51°54' E 004°27'0 0.0
2018-Jun-15 07:00N 51°54' E 004°27'0 0.0
2018-Jun-15 06:30N 51°54' E 004°27'0 0.0
2018-Jun-15 06:00N 51°54' E 004°27'0 0.0
2018-Jun-15 05:30N 51°54' E 004°27'0 0.0
2018-Jun-15 05:00N 51°54' E 004°27'0 1.0
2018-Jun-15 04:30N 51°54' E 004°26'5 9.6
2018-Jun-15 04:00N 51°54' E 004°18'713.3
2018-Jun-15 03:30N 51°58' E 004°09'510.8
2018-Jun-15 03:00N 52°01' E 004°03'510.3
2018-Jun-15 02:30N 52°06' E 004°04'2 4.9
2018-Jun-15 02:01N 52°09' E 004°04'713.4
2018-Jun-15 01:30N 52°02' E 004°03'5 9.0
2018-Jun-15 01:00N 51°58' E 004°08'611.6
2018-Jun-15 00:31N 51°55' E 004°15'2 5.0
2018-Jun-15 00:00N 51°54' E 004°18'1 2.3
2018-Jun-14 23:30N 51°54' E 004°17'611.3
2018-Jun-14 23:00N 51°57' E 004°09'510.4
2018-Jun-14 22:30N 52°00' E 004°02'612.6
2018-Jun-14 22:01N 52°07' E 004°04'1 2.1
2018-Jun-14 21:30N 52°08' E 004°04'510.7
2018-Jun-14 21:00N 52°02' E 004°03'5 9.4
2018-Jun-14 20:30N 51°59' E 004°07'713.5
2018-Jun-14 20:00N 51°54' E 004°16'2 3.2
2018-Jun-14 19:31N 51°54' E 004°18'3 6.5
2018-Jun-14 19:00N 51°55' E 004°14'510.0
2018-Jun-14 18:31N 51°58' E 004°07'4 8.7
2018-Jun-14 18:01N 52°02' E 004°03'611.3
2018-Jun-14 17:31N 52°08' E 004°04'2 3.3
2018-Jun-14 17:01N 52°06' E 004°04'612.3
2018-Jun-14 16:30N 51°60' E 004°03'611.7
2018-Jun-14 16:01N 51°57' E 004°11'611.1
2018-Jun-14 15:30N 51°54' E 004°18'0 0.8
2018-Jun-14 15:00N 51°53' E 004°18'0 0.1
2018-Jun-14 14:31N 51°53' E 004°18'2 4.9
2018-Jun-14 14:00N 51°55' E 004°15'612.4
2018-Jun-14 13:31N 51°59' E 004°07'4 8.3
2018-Jun-14 13:00N 52°02' E 004°03'510.1
2018-Jun-14 12:31N 52°07' E 004°04'0 0.3
2018-Jun-14 12:01N 52°07' E 004°04'611.8
2018-Jun-14 11:30N 52°01' E 004°03'511.0
2018-Jun-14 11:01N 51°57' E 004°10'713.4
2018-Jun-14 10:31N 51°53' E 004°18'0 0.6
2018-Jun-14 10:01N 51°53' E 004°18'0 0.0
2018-Jun-14 09:31N 51°53' E 004°18'1 1.2
2018-Jun-14 09:01N 51°54' E 004°18'510.6
2018-Jun-14 08:31N 51°57' E 004°11'4 7.9
2018-Jun-14 08:00N 51°56' E 004°04'1 1.6
2018-Jun-14 07:30N 51°56' E 004°03'0 0.0
2018-Jun-14 07:00N 51°56' E 004°03'0 0.0
2018-Jun-14 06:30N 51°56' E 004°03'0 0.5
2018-Jun-14 06:00N 51°56' E 004°03'4 7.2
2018-Jun-14 05:30N 51°58' E 004°08'713.1
2018-Jun-14 05:00N 51°54' E 004°17'1 2.1
2018-Jun-14 04:30N 51°53' E 004°17'0 0.4
2018-Jun-14 04:00N 51°53' E 004°17'1 2.1
2018-Jun-14 03:30N 51°54' E 004°17'611.6
2018-Jun-14 03:00N 51°58' E 004°09'4 8.3
2018-Jun-14 02:30N 51°56' E 004°03'0 0.0
2018-Jun-14 02:00N 51°56' E 004°03'0 0.0
2018-Jun-14 01:30N 51°56' E 004°03'1 2.1
2018-Jun-14 01:00N 51°57' E 004°04'4 7.3
2018-Jun-14 00:30N 51°57' E 004°10'6 5.6
2018-Jun-13 23:30N 51°53' E 004°17'0 0.4
2018-Jun-13 23:00N 51°53' E 004°17'1 1.9
2018-Jun-13 22:30N 51°54' E 004°18'510.9
2018-Jun-13 22:00N 51°57' E 004°11'4 7.6
2018-Jun-13 21:31N 51°56' E 004°05'1 2.0
2018-Jun-13 21:00N 51°56' E 004°03'0 0.0
2018-Jun-13 20:30N 51°56' E 004°03'1 3.0
2018-Jun-13 20:00N 51°57' E 004°05'4 8.2
2018-Jun-13 19:30N 51°57' E 004°12'510.7
2018-Jun-13 19:00N 51°53' E 004°18'1 2.2
2018-Jun-13 18:31N 51°53' E 004°17'0 0.5
2018-Jun-13 18:00N 51°53' E 004°17'3 5.7
2018-Jun-13 17:30N 51°55' E 004°14'510.3
2018-Jun-13 17:01N 51°58' E 004°07'4 7.2
2018-Jun-13 16:30N 51°56' E 004°03'0 0.0
2018-Jun-13 16:01N 51°56' E 004°03'0 0.0
2018-Jun-13 15:30N 51°56' E 004°03'1 1.7
2018-Jun-13 15:00N 51°56' E 004°04'3 6.3
2018-Jun-13 14:30N 51°58' E 004°09'4 7.3
2018-Jun-13 14:00N 51°56' E 004°14'3 6.2
2018-Jun-13 13:31N 51°54' E 004°18'1 1.9
2018-Jun-13 13:01N 51°53' E 004°17'0 0.3
2018-Jun-13 12:30N 51°53' E 004°17'1 2.8
2018-Jun-13 12:00N 51°54' E 004°16'611.9
2018-Jun-13 11:30N 51°58' E 004°08'4 7.7
2018-Jun-13 11:01N 51°56' E 004°03'0 0.0
2018-Jun-13 10:30N 51°56' E 004°03'0 0.0
2018-Jun-13 10:00N 51°56' E 004°03'0 0.3
2018-Jun-13 09:30N 51°56' E 004°03'1 3.0
2018-Jun-13 09:00N 51°57' E 004°05'3 6.1
2018-Jun-13 08:31N 51°57' E 004°10'612.7
2018-Jun-13 08:00N 51°54' E 004°18'1 2.3
2018-Jun-13 07:30N 51°53' E 004°17'0 0.1
2018-Jun-13 07:00N 51°53' E 004°17'1 2.0
2018-Jun-13 06:30N 51°54' E 004°17'5 9.7
2018-Jun-13 06:01N 51°57' E 004°10'4 7.7
2018-Jun-13 05:31N 51°56' E 004°04'1 1.5
2018-Jun-13 05:00N 51°56' E 004°03'0 0.0
2018-Jun-13 04:31N 51°56' E 004°03'1 1.7
2018-Jun-13 04:01N 51°56' E 004°04'3 6.9
2018-Jun-13 03:30N 51°57' E 004°10'611.4
2018-Jun-13 03:01N 51°54' E 004°17'1 1.8
2018-Jun-13 02:31N 51°53' E 004°17'0 0.7
2018-Jun-13 02:01N 51°53' E 004°17'4 7.8
2018-Jun-13 01:31N 51°56' E 004°13'510.1
2018-Jun-13 01:00N 51°57' E 004°05'1 2.6
2018-Jun-13 00:30N 51°56' E 004°03'0 0.0
2018-Jun-13 00:00N 51°56' E 004°03'1 2.2
2018-Jun-12 23:30N 51°57' E 004°05'3 6.8
2018-Jun-12 23:00N 51°57' E 004°10'612.4
2018-Jun-12 22:30N 51°54' E 004°18'1 2.2
2018-Jun-12 22:00N 51°53' E 004°17'0 0.0
2018-Jun-12 21:30N 51°53' E 004°17'0 0.9
2018-Jun-12 21:00N 51°53' E 004°17'4 8.1
2018-Jun-12 20:30N 51°56' E 004°13'510.0
2018-Jun-12 20:00N 51°58' E 004°05'3 5.2
2018-Jun-12 19:30N 51°56' E 004°03'0 0.0
2018-Jun-12 19:00N 51°56' E 004°03'1 2.2
2018-Jun-12 18:30N 51°57' E 004°05'4 7.9
2018-Jun-12 18:00N 51°57' E 004°11'611.1
2018-Jun-12 17:30N 51°53' E 004°18'1 1.5
2018-Jun-12 17:00N 51°53' E 004°17'0 0.0
2018-Jun-12 16:30N 51°53' E 004°17'0 0.6
2018-Jun-12 16:00N 51°53' E 004°17'4 7.3
2018-Jun-12 15:30N 51°56' E 004°13'510.6
2018-Jun-12 15:00N 51°58' E 004°06'3 5.3
2018-Jun-12 14:30N 51°56' E 004°03'0 0.0
2018-Jun-12 14:00N 51°56' E 004°03'0 0.4
2018-Jun-12 13:30N 51°56' E 004°03'4 7.3
2018-Jun-12 13:00N 51°58' E 004°08'4 8.7
2018-Jun-12 12:30N 51°55' E 004°14'3 6.5
2018-Jun-12 12:00N 51°53' E 004°18'1 1.6
2018-Jun-12 11:30N 51°53' E 004°17'0 0.0
2018-Jun-12 11:00N 51°53' E 004°17'1 2.0
2018-Jun-12 10:30N 51°54' E 004°18'510.4
2018-Jun-12 10:00N 51°57' E 004°11'4 7.7
2018-Jun-12 09:30N 51°57' E 004°05'2 3.2
2018-Jun-12 09:00N 51°56' E 004°03'0 0.0
2018-Jun-12 08:30N 51°56' E 004°03'1 1.0
2018-Jun-12 08:00N 51°56' E 004°04'3 6.8
2018-Jun-12 07:30N 51°58' E 004°09'612.9
2018-Jun-12 07:00N 51°54' E 004°17'1 1.9
2018-Jun-12 06:30N 51°53' E 004°17'0 0.1
2018-Jun-12 06:00N 51°53' E 004°17'2 3.1
2018-Jun-12 05:30N 51°54' E 004°16'5 9.3
2018-Jun-12 05:00N 51°57' E 004°10'3 6.3
2018-Jun-12 04:30N 51°57' E 004°05'1 2.4
2018-Jun-12 04:00N 51°56' E 004°03'0 0.0
2018-Jun-12 03:30N 51°56' E 004°03'1 2.9
2018-Jun-12 03:00N 51°57' E 004°05'4 7.1
2018-Jun-12 02:30N 51°57' E 004°11'611.1
2018-Jun-12 02:00N 51°54' E 004°18'1 2.1
2018-Jun-12 01:30N 51°53' E 004°17'0 0.0
2018-Jun-12 01:00N 51°53' E 004°17'1 1.8
2018-Jun-12 00:30N 51°54' E 004°18'612.9
2018-Jun-12 00:00N 51°58' E 004°09'4 8.0
2018-Jun-11 23:30N 51°56' E 004°03'0 0.2
2018-Jun-11 23:00N 51°56' E 004°03'0 0.0
2018-Jun-11 22:30N 51°56' E 004°03'2 3.3
2018-Jun-11 22:00N 51°57' E 004°05'4 8.0
2018-Jun-11 21:30N 51°57' E 004°11'510.6
2018-Jun-11 21:00N 51°53' E 004°18'1 1.6
2018-Jun-11 20:30N 51°53' E 004°17'0 0.2
2018-Jun-11 20:00N 51°53' E 004°17'2 4.3
2018-Jun-11 19:30N 51°55' E 004°15'510.9
2018-Jun-11 19:00N 51°58' E 004°08'4 7.4
2018-Jun-11 18:30N 51°56' E 004°03'0 0.0
2018-Jun-11 18:00N 51°56' E 004°03'0 0.0
2018-Jun-11 17:30N 51°56' E 004°03'4 7.7
2018-Jun-11 17:01N 51°58' E 004°08'713.5
2018-Jun-11 16:30N 51°54' E 004°17'1 1.8
2018-Jun-11 16:00N 51°53' E 004°17'0 0.2
2018-Jun-11 15:30N 51°53' E 004°17'1 1.6
2018-Jun-11 15:00N 51°54' E 004°17'611.6
2018-Jun-11 14:30N 51°57' E 004°10'4 8.5
2018-Jun-11 14:01N 51°56' E 004°03'0 0.4
2018-Jun-11 13:30N 51°56' E 004°03'0 0.0
2018-Jun-11 13:00N 51°56' E 004°03'3 5.8
2018-Jun-11 12:30N 51°58' E 004°06'5 9.2
2018-Jun-11 12:01N 51°56' E 004°13'4 9.0
2018-Jun-11 11:31N 51°54' E 004°18'1 2.4
2018-Jun-11 11:00N 51°53' E 004°17'1 1.8
2018-Jun-11 10:30N 51°54' E 004°17'612.6
2018-Jun-11 10:00N 51°58' E 004°09'4 7.9
2018-Jun-11 09:30N 51°56' E 004°03'0 0.4
2018-Jun-11 09:00N 51°56' E 004°03'0 0.0
2018-Jun-11 08:30N 51°56' E 004°03'1 2.0
2018-Jun-11 08:00N 51°57' E 004°04'3 5.3
2018-Jun-11 07:30N 51°58' E 004°07'511.0
2018-Jun-11 07:00N 51°55' E 004°14'3 5.3
2018-Jun-11 06:30N 51°53' E 004°17'0 0.6
2018-Jun-11 06:01N 51°53' E 004°17'0 0.1
2018-Jun-11 05:30N 51°53' E 004°17'2 3.5
2018-Jun-11 05:00N 51°55' E 004°15'5 9.7
2018-Jun-11 04:30N 51°58' E 004°09'4 8.1
2018-Jun-11 04:01N 51°56' E 004°03'0 0.2
2018-Jun-11 03:30N 51°56' E 004°03'0 0.0
2018-Jun-11 03:00N 51°56' E 004°03'0 0.0
2018-Jun-11 02:31N 51°56' E 004°03'2 3.4
2018-Jun-11 02:01N 51°57' E 004°05'3 6.3
2018-Jun-11 01:30N 51°57' E 004°10'510.7
2018-Jun-11 01:00N 51°54' E 004°17'1 1.7
2018-Jun-11 00:30N 51°54' E 004°19'0 1.0
2018-Jun-11 00:01N 51°54' E 004°18'714.0
2018-Jun-10 23:31N 51°58' E 004°09'4 7.8
2018-Jun-10 23:00N 51°56' E 004°03'0 0.0
2018-Jun-10 22:30N 51°56' E 004°03'0 0.0
2018-Jun-10 22:01N 51°56' E 004°03'0 0.0
2018-Jun-10 21:30N 51°56' E 004°03'7 6.7
2018-Jun-10 20:30N 51°55' E 004°14'3 6.7
2018-Jun-10 20:00N 51°54' E 004°19'1 1.5
2018-Jun-10 19:30N 51°54' E 004°17'510.8
2018-Jun-10 19:00N 51°57' E 004°10'4 7.7
2018-Jun-10 18:30N 51°56' E 004°04'1 1.5
2018-Jun-10 18:00N 51°56' E 004°03'0 0.0
2018-Jun-10 17:30N 51°56' E 004°03'0 0.0
2018-Jun-10 17:01N 51°56' E 004°03'1 1.8
2018-Jun-10 16:30N 51°56' E 004°04'4 7.4
2018-Jun-10 16:00N 51°57' E 004°10'612.0
2018-Jun-10 15:30N 51°54' E 004°18'0 0.6
2018-Jun-10 15:00N 51°54' E 004°19'7 6.9
2018-Jun-10 14:00N 51°57' E 004°09'4 8.1
2018-Jun-10 13:30N 51°56' E 004°03'0 0.4
2018-Jun-10 13:00N 51°56' E 004°03'0 0.0
2018-Jun-10 12:30N 51°56' E 004°03'0 0.0
2018-Jun-10 12:01N 51°56' E 004°03'3 6.1
2018-Jun-10 11:30N 51°58' E 004°06'4 8.1
2018-Jun-10 11:00N 51°56' E 004°12'4 8.6
2018-Jun-10 10:31N 51°54' E 004°18'1 1.2
2018-Jun-10 10:01N 51°54' E 004°19'0 0.6
2018-Jun-10 09:30N 51°54' E 004°18'611.6
2018-Jun-10 09:00N 51°57' E 004°10'4 7.3
2018-Jun-10 08:31N 51°56' E 004°05'1 2.1
2018-Jun-10 08:00N 51°56' E 004°03'0 0.0
2018-Jun-10 07:30N 51°56' E 004°03'0 0.0
2018-Jun-10 07:00N 51°56' E 004°03'0 0.0
2018-Jun-10 06:30N 51°56' E 004°03'3 6.7
2018-Jun-10 06:01N 51°59' E 004°06'612.0
2018-Jun-10 05:30N 51°55' E 004°14'4 7.1
2018-Jun-10 05:00N 51°54' E 004°19'0 0.1
2018-Jun-10 04:31N 51°54' E 004°19'3 5.6
2018-Jun-10 04:01N 51°55' E 004°15'5 9.5
2018-Jun-10 03:30N 51°58' E 004°09'4 7.9
2018-Jun-10 03:00N 51°56' E 004°03'0 0.1
2018-Jun-10 02:30N 51°56' E 004°03'0 0.0
2018-Jun-10 02:00N 51°56' E 004°03'0 0.0
2018-Jun-10 01:30N 51°56' E 004°03'2 4.2
2018-Jun-10 01:00N 51°58' E 004°05'4 8.2
2018-Jun-10 00:30N 51°57' E 004°12'5 9.5
2018-Jun-10 00:01N 51°54' E 004°18'0 0.7
2018-Jun-09 23:30N 51°54' E 004°18'0 0.9
2018-Jun-09 23:00N 51°54' E 004°18'714.0
2018-Jun-09 22:30N 51°58' E 004°09'4 7.8
2018-Jun-09 22:00N 51°56' E 004°03'0 0.1
2018-Jun-09 21:30N 51°56' E 004°03'0 0.0
2018-Jun-09 21:00N 51°56' E 004°03'0 0.0
2018-Jun-09 20:30N 51°56' E 004°03'2 3.5
2018-Jun-09 20:00N 51°57' E 004°05'3 7.0
2018-Jun-09 19:30N 51°57' E 004°11'611.4
2018-Jun-09 19:00N 51°54' E 004°18'0 0.6
2018-Jun-09 18:30N 51°54' E 004°19'0 0.2
2018-Jun-09 18:00N 51°54' E 004°19'3 6.9
2018-Jun-09 17:30N 51°55' E 004°14'510.3
2018-Jun-09 17:01N 51°58' E 004°07'3 7.0
2018-Jun-09 16:30N 51°56' E 004°03'0 0.0
2018-Jun-09 16:00N 51°56' E 004°03'0 0.0
2018-Jun-09 15:30N 51°56' E 004°03'4 3.8
2018-Jun-09 14:30N 51°58' E 004°08'612.4
2018-Jun-09 14:00N 51°54' E 004°16'2 3.2
2018-Jun-09 13:30N 51°54' E 004°18'0 0.2
2018-Jun-09 13:01N 51°54' E 004°19'5 9.4
2018-Jun-09 12:30N 51°56' E 004°12'4 9.0
2018-Jun-09 12:00N 51°57' E 004°05'2 3.2
2018-Jun-09 11:30N 51°56' E 004°03'0 0.0
2018-Jun-09 11:00N 51°56' E 004°03'0 0.0
2018-Jun-09 10:30N 51°56' E 004°03'2 4.7
2018-Jun-09 10:00N 51°58' E 004°05'4 7.6
2018-Jun-09 09:30N 51°57' E 004°11'5 9.5
2018-Jun-09 09:00N 51°54' E 004°17'1 1.8
2018-Jun-09 08:30N 51°54' E 004°19'3 5.2
2018-Jun-09 08:00N 51°55' E 004°15'611.6
2018-Jun-09 07:30N 51°58' E 004°08'4 7.3
2018-Jun-09 07:00N 51°56' E 004°03'0 0.0
2018-Jun-09 06:30N 51°56' E 004°03'0 0.0
2018-Jun-09 06:00N 51°56' E 004°03'0 0.0
2018-Jun-09 05:30N 51°56' E 004°03'3 5.1
2018-Jun-09 05:00N 51°58' E 004°05'4 8.6
2018-Jun-09 04:30N 51°57' E 004°12'510.1
2018-Jun-09 04:00N 51°54' E 004°18'0 0.5
2018-Jun-09 03:30N 51°54' E 004°19'1 2.8
2018-Jun-09 03:00N 51°54' E 004°17'5 9.1
2018-Jun-09 02:30N 51°57' E 004°11'3 6.9
2018-Jun-09 02:00N 51°57' E 004°05'2 3.5
2018-Jun-09 01:30N 51°56' E 004°03'0 0.0
2018-Jun-09 01:00N 51°56' E 004°03'0 0.0
2018-Jun-09 00:30N 51°56' E 004°03'1 2.7
2018-Jun-09 00:00N 51°57' E 004°05'3 6.6
2018-Jun-08 23:30N 51°57' E 004°10'510.1
2018-Jun-08 23:00N 51°54' E 004°17'1 2.9
2018-Jun-08 22:30N 51°54' E 004°19'0 0.5
2018-Jun-08 22:00N 51°54' E 004°18'612.5
2018-Jun-08 21:30N 51°57' E 004°10'4 8.5
2018-Jun-08 21:00N 51°56' E 004°03'0 0.4
2018-Jun-08 20:30N 51°56' E 004°03'0 0.0
2018-Jun-08 20:00N 51°56' E 004°03'0 0.1
2018-Jun-08 19:30N 51°56' E 004°03'3 5.6
2018-Jun-08 19:01N 51°58' E 004°06'510.7
2018-Jun-08 18:30N 51°56' E 004°13'4 7.6
2018-Jun-08 18:00N 51°54' E 004°19'0 0.2
2018-Jun-08 17:30N 51°54' E 004°19'5 9.0
2018-Jun-08 17:00N 51°56' E 004°12'5 9.3
2018-Jun-08 16:30N 51°58' E 004°06'3 5.7
2018-Jun-08 16:00N 51°56' E 004°03'0 0.0
2018-Jun-08 15:30N 51°56' E 004°03'0 0.0
2018-Jun-08 15:00N 51°56' E 004°03'2 4.3
2018-Jun-08 14:30N 51°58' E 004°05'5 9.7
2018-Jun-08 14:00N 51°56' E 004°13'4 8.7
2018-Jun-08 13:30N 51°54' E 004°19'0 0.1
2018-Jun-08 13:00N 51°54' E 004°19'4 8.9
2018-Jun-08 12:30N 51°56' E 004°13'5 9.5
2018-Jun-08 12:00N 51°58' E 004°05'2 4.5
2018-Jun-08 11:30N 51°56' E 004°03'0 0.0
2018-Jun-08 11:00N 51°56' E 004°03'0 0.0
2018-Jun-08 10:30N 51°56' E 004°03'3 5.8
2018-Jun-08 10:00N 51°58' E 004°06'5 9.9
2018-Jun-08 09:30N 51°56' E 004°13'  

Dump ship's entire track history